sensor_id;sensor_type;location;lat;lon;timestamp;temperature;humidity
83596;HTU21D;73564;45.026;38.952;2023-12-20T00:01:33;11.29;76.59
83596;HTU21D;73564;45.026;38.952;2023-12-20T00:03:59;11.22;76.79
83596;HTU21D;73564;45.026;38.952;2023-12-20T00:06:25;11.19;76.83
83596;HTU21D;73564;45.026;38.952;2023-12-20T00:08:50;11.13;76.95
83596;HTU21D;73564;45.026;38.952;2023-12-20T00:11:16;11.12;77.08
83596;HTU21D;73564;45.026;38.952;2023-12-20T00:13:42;11.11;77.02
83596;HTU21D;73564;45.026;38.952;2023-12-20T00:16:09;11.09;76.89
83596;HTU21D;73564;45.026;38.952;2023-12-20T00:18:34;11.04;76.93
83596;HTU21D;73564;45.026;38.952;2023-12-20T00:21:00;11.00;77.10
83596;HTU21D;73564;45.026;38.952;2023-12-20T00:23:26;10.99;77.19
83596;HTU21D;73564;45.026;38.952;2023-12-20T00:25:52;10.99;77.12
83596;HTU21D;73564;45.026;38.952;2023-12-20T00:28:18;10.99;76.98
83596;HTU21D;73564;45.026;38.952;2023-12-20T00:30:44;10.98;77.02
83596;HTU21D;73564;45.026;38.952;2023-12-20T00:33:09;10.96;76.94
83596;HTU21D;73564;45.026;38.952;2023-12-20T00:35:35;10.94;76.99
83596;HTU21D;73564;45.026;38.952;2023-12-20T00:38:01;10.92;77.05
83596;HTU21D;73564;45.026;38.952;2023-12-20T00:40:27;10.92;76.97
83596;HTU21D;73564;45.026;38.952;2023-12-20T00:42:53;10.92;77.08
83596;HTU21D;73564;45.026;38.952;2023-12-20T00:45:19;10.90;77.00
83596;HTU21D;73564;45.026;38.952;2023-12-20T00:47:45;10.88;76.89
83596;HTU21D;73564;45.026;38.952;2023-12-20T00:50:11;10.87;77.18
83596;HTU21D;73564;45.026;38.952;2023-12-20T00:52:36;10.90;77.22
83596;HTU21D;73564;45.026;38.952;2023-12-20T00:55:03;10.94;77.15
83596;HTU21D;73564;45.026;38.952;2023-12-20T00:57:29;10.98;77.15
83596;HTU21D;73564;45.026;38.952;2023-12-20T00:59:55;11.05;77.18
83596;HTU21D;73564;45.026;38.952;2023-12-20T01:02:21;11.11;77.02
83596;HTU21D;73564;45.026;38.952;2023-12-20T01:04:46;11.17;77.05
83596;HTU21D;73564;45.026;38.952;2023-12-20T01:07:12;11.26;77.04
83596;HTU21D;73564;45.026;38.952;2023-12-20T01:09:38;11.34;76.94
83596;HTU21D;73564;45.026;38.952;2023-12-20T01:12:04;11.43;76.80
83596;HTU21D;73564;45.026;38.952;2023-12-20T01:14:30;11.51;76.50
83596;HTU21D;73564;45.026;38.952;2023-12-20T01:16:56;11.55;76.43
83596;HTU21D;73564;45.026;38.952;2023-12-20T01:19:22;11.61;76.25
83596;HTU21D;73564;45.026;38.952;2023-12-20T01:21:49;11.59;76.44
83596;HTU21D;73564;45.026;38.952;2023-12-20T01:24:15;11.62;76.05
83596;HTU21D;73564;45.026;38.952;2023-12-20T01:26:40;11.62;75.99
83596;HTU21D;73564;45.026;38.952;2023-12-20T01:29:06;11.60;75.96
83596;HTU21D;73564;45.026;38.952;2023-12-20T01:31:32;11.61;75.95
83596;HTU21D;73564;45.026;38.952;2023-12-20T01:33:58;11.64;76.00
83596;HTU21D;73564;45.026;38.952;2023-12-20T01:36:24;11.67;75.89
83596;HTU21D;73564;45.026;38.952;2023-12-20T01:38:50;11.70;75.83
83596;HTU21D;73564;45.026;38.952;2023-12-20T01:41:15;11.73;75.70
83596;HTU21D;73564;45.026;38.952;2023-12-20T01:43:41;11.75;75.63
83596;HTU21D;73564;45.026;38.952;2023-12-20T01:46:07;11.76;75.51
83596;HTU21D;73564;45.026;38.952;2023-12-20T01:48:33;11.77;75.47
83596;HTU21D;73564;45.026;38.952;2023-12-20T01:51:02;11.78;75.44
83596;HTU21D;73564;45.026;38.952;2023-12-20T01:53:28;11.78;75.43
83596;HTU21D;73564;45.026;38.952;2023-12-20T01:55:55;11.78;75.38
83596;HTU21D;73564;45.026;38.952;2023-12-20T01:58:23;11.78;75.39
83596;HTU21D;73564;45.026;38.952;2023-12-20T02:00:48;11.73;75.14
83596;HTU21D;73564;45.026;38.952;2023-12-20T02:03:15;11.71;75.38
83596;HTU21D;73564;45.026;38.952;2023-12-20T02:05:41;11.71;75.47
83596;HTU21D;73564;45.026;38.952;2023-12-20T02:08:07;11.72;75.47
83596;HTU21D;73564;45.026;38.952;2023-12-20T02:10:33;11.72;75.50
83596;HTU21D;73564;45.026;38.952;2023-12-20T02:12:59;11.74;75.50
83596;HTU21D;73564;45.026;38.952;2023-12-20T02:15:25;11.78;75.40
83596;HTU21D;73564;45.026;38.952;2023-12-20T02:17:51;11.81;75.31
83596;HTU21D;73564;45.026;38.952;2023-12-20T02:20:17;11.79;75.12
83596;HTU21D;73564;45.026;38.952;2023-12-20T02:22:43;11.79;75.12
83596;HTU21D;73564;45.026;38.952;2023-12-20T02:25:09;11.76;75.05
83596;HTU21D;73564;45.026;38.952;2023-12-20T02:27:35;11.74;75.05
83596;HTU21D;73564;45.026;38.952;2023-12-20T02:30:01;11.72;74.86
83596;HTU21D;73564;45.026;38.952;2023-12-20T02:32:27;11.64;74.86
83596;HTU21D;73564;45.026;38.952;2023-12-20T02:34:55;11.59;74.98
83596;HTU21D;73564;45.026;38.952;2023-12-20T02:37:21;11.56;75.00
83596;HTU21D;73564;45.026;38.952;2023-12-20T02:39:47;11.54;74.89
83596;HTU21D;73564;45.026;38.952;2023-12-20T02:42:13;11.53;74.99
83596;HTU21D;73564;45.026;38.952;2023-12-20T02:44:39;11.52;74.95
83596;HTU21D;73564;45.026;38.952;2023-12-20T02:47:04;11.52;74.99
83596;HTU21D;73564;45.026;38.952;2023-12-20T02:49:30;11.52;75.04
83596;HTU21D;73564;45.026;38.952;2023-12-20T02:51:56;11.55;74.87
83596;HTU21D;73564;45.026;38.952;2023-12-20T02:54:22;11.53;74.76
83596;HTU21D;73564;45.026;38.952;2023-12-20T02:56:48;11.51;74.89
83596;HTU21D;73564;45.026;38.952;2023-12-20T02:59:14;11.49;74.88
83596;HTU21D;73564;45.026;38.952;2023-12-20T03:01:45;11.51;74.84
83596;HTU21D;73564;45.026;38.952;2023-12-20T03:04:11;11.49;74.80
83596;HTU21D;73564;45.026;38.952;2023-12-20T03:06:38;11.49;74.80
83596;HTU21D;73564;45.026;38.952;2023-12-20T03:09:04;11.48;74.75
83596;HTU21D;73564;45.026;38.952;2023-12-20T03:11:30;11.47;74.54
83596;HTU21D;73564;45.026;38.952;2023-12-20T03:13:56;11.45;74.70
83596;HTU21D;73564;45.026;38.952;2023-12-20T03:16:22;11.43;74.74
83596;HTU21D;73564;45.026;38.952;2023-12-20T03:18:47;11.43;74.79
83596;HTU21D;73564;45.026;38.952;2023-12-20T03:21:14;11.43;74.73
83596;HTU21D;73564;45.026;38.952;2023-12-20T03:23:40;11.41;74.75
83596;HTU21D;73564;45.026;38.952;2023-12-20T03:26:07;11.39;74.66
83596;HTU21D;73564;45.026;38.952;2023-12-20T03:28:33;11.39;74.75
83596;HTU21D;73564;45.026;38.952;2023-12-20T03:30:59;11.39;74.62
83596;HTU21D;73564;45.026;38.952;2023-12-20T03:33:25;11.36;74.64
83596;HTU21D;73564;45.026;38.952;2023-12-20T03:35:51;11.36;74.64
83596;HTU21D;73564;45.026;38.952;2023-12-20T03:38:17;11.34;74.61
83596;HTU21D;73564;45.026;38.952;2023-12-20T03:40:44;11.31;74.60
83596;HTU21D;73564;45.026;38.952;2023-12-20T03:43:10;11.30;74.65
83596;HTU21D;73564;45.026;38.952;2023-12-20T03:45:35;11.28;74.69
83596;HTU21D;73564;45.026;38.952;2023-12-20T03:48:02;11.27;74.68
83596;HTU21D;73564;45.026;38.952;2023-12-20T03:50:28;11.23;74.68
83596;HTU21D;73564;45.026;38.952;2023-12-20T03:52:54;11.22;74.75
83596;HTU21D;73564;45.026;38.952;2023-12-20T03:55:20;11.17;74.73
83596;HTU21D;73564;45.026;38.952;2023-12-20T03:57:46;11.15;74.78
83596;HTU21D;73564;45.026;38.952;2023-12-20T04:00:12;11.12;74.86
83596;HTU21D;73564;45.026;38.952;2023-12-20T04:02:39;11.07;74.89
83596;HTU21D;73564;45.026;38.952;2023-12-20T04:05:06;11.05;74.97
83596;HTU21D;73564;45.026;38.952;2023-12-20T04:07:32;11.03;74.99
83596;HTU21D;73564;45.026;38.952;2023-12-20T04:09:58;11.00;75.06
83596;HTU21D;73564;45.026;38.952;2023-12-20T04:12:24;10.98;74.97
83596;HTU21D;73564;45.026;38.952;2023-12-20T04:14:49;10.96;75.02
83596;HTU21D;73564;45.026;38.952;2023-12-20T04:17:16;10.93;75.08
83596;HTU21D;73564;45.026;38.952;2023-12-20T04:19:44;10.89;75.10
83596;HTU21D;73564;45.026;38.952;2023-12-20T04:22:10;10.88;75.17
83596;HTU21D;73564;45.026;38.952;2023-12-20T04:24:36;10.85;75.13
83596;HTU21D;73564;45.026;38.952;2023-12-20T04:27:02;10.81;75.14
83596;HTU21D;73564;45.026;38.952;2023-12-20T04:29:28;10.79;75.21
83596;HTU21D;73564;45.026;38.952;2023-12-20T04:31:54;10.75;75.28
83596;HTU21D;73564;45.026;38.952;2023-12-20T04:34:20;10.74;75.36
83596;HTU21D;73564;45.026;38.952;2023-12-20T04:36:46;10.71;75.35
83596;HTU21D;73564;45.026;38.952;2023-12-20T04:39:13;10.70;75.37
83596;HTU21D;73564;45.026;38.952;2023-12-20T04:41:40;10.68;75.23
83596;HTU21D;73564;45.026;38.952;2023-12-20T04:44:05;10.64;75.30
83596;HTU21D;73564;45.026;38.952;2023-12-20T04:46:31;10.60;75.39
83596;HTU21D;73564;45.026;38.952;2023-12-20T04:48:57;10.57;75.48
83596;HTU21D;73564;45.026;38.952;2023-12-20T04:51:23;10.55;75.54
83596;HTU21D;73564;45.026;38.952;2023-12-20T04:53:49;10.55;75.60
83596;HTU21D;73564;45.026;38.952;2023-12-20T04:56:15;10.56;75.66
83596;HTU21D;73564;45.026;38.952;2023-12-20T04:58:42;10.57;75.65
83596;HTU21D;73564;45.026;38.952;2023-12-20T05:01:08;10.54;76.26
83596;HTU21D;73564;45.026;38.952;2023-12-20T05:03:34;10.58;75.71
83596;HTU21D;73564;45.026;38.952;2023-12-20T05:06:00;10.62;75.61
83596;HTU21D;73564;45.026;38.952;2023-12-20T05:08:25;10.65;75.45
83596;HTU21D;73564;45.026;38.952;2023-12-20T05:10:54;10.65;75.29
83596;HTU21D;73564;45.026;38.952;2023-12-20T05:13:20;10.64;75.28
83596;HTU21D;73564;45.026;38.952;2023-12-20T05:15:46;10.62;75.30
83596;HTU21D;73564;45.026;38.952;2023-12-20T05:18:12;10.60;75.31
83596;HTU21D;73564;45.026;38.952;2023-12-20T05:20:39;10.60;75.28
83596;HTU21D;73564;45.026;38.952;2023-12-20T05:23:05;10.58;75.28
83596;HTU21D;73564;45.026;38.952;2023-12-20T05:25:31;10.54;75.31
83596;HTU21D;73564;45.026;38.952;2023-12-20T05:27:57;10.54;75.50
83596;HTU21D;73564;45.026;38.952;2023-12-20T05:30:23;10.55;75.56
83596;HTU21D;73564;45.026;38.952;2023-12-20T05:32:48;10.58;75.36
83596;HTU21D;73564;45.026;38.952;2023-12-20T05:35:14;10.58;75.34
83596;HTU21D;73564;45.026;38.952;2023-12-20T05:37:41;10.59;75.45
83596;HTU21D;73564;45.026;38.952;2023-12-20T05:40:07;10.60;75.42
83596;HTU21D;73564;45.026;38.952;2023-12-20T05:42:36;10.63;75.45
83596;HTU21D;73564;45.026;38.952;2023-12-20T05:45:04;10.65;75.42
83596;HTU21D;73564;45.026;38.952;2023-12-20T05:47:30;10.66;75.42
83596;HTU21D;73564;45.026;38.952;2023-12-20T05:49:56;10.69;75.26
83596;HTU21D;73564;45.026;38.952;2023-12-20T05:52:21;10.70;75.19
83596;HTU21D;73564;45.026;38.952;2023-12-20T05:54:47;10.70;75.30
83596;HTU21D;73564;45.026;38.952;2023-12-20T05:57:13;10.74;75.32
83596;HTU21D;73564;45.026;38.952;2023-12-20T05:59:39;10.77;75.15
83596;HTU21D;73564;45.026;38.952;2023-12-20T06:02:05;10.77;75.06
83596;HTU21D;73564;45.026;38.952;2023-12-20T06:04:31;10.77;75.14
83596;HTU21D;73564;45.026;38.952;2023-12-20T06:06:57;10.78;75.05
83596;HTU21D;73564;45.026;38.952;2023-12-20T06:09:23;10.80;75.24
83596;HTU21D;73564;45.026;38.952;2023-12-20T06:11:49;10.83;75.22
83596;HTU21D;73564;45.026;38.952;2023-12-20T06:14:15;10.86;75.25
83596;HTU21D;73564;45.026;38.952;2023-12-20T06:16:41;10.93;75.12
83596;HTU21D;73564;45.026;38.952;2023-12-20T06:19:07;10.96;75.02
83596;HTU21D;73564;45.026;38.952;2023-12-20T06:21:33;10.98;74.85
83596;HTU21D;73564;45.026;38.952;2023-12-20T06:23:59;10.99;74.84
83596;HTU21D;73564;45.026;38.952;2023-12-20T06:26:25;11.00;74.86
83596;HTU21D;73564;45.026;38.952;2023-12-20T06:28:51;11.03;74.96
83596;HTU21D;73564;45.026;38.952;2023-12-20T06:31:17;11.08;74.97
83596;HTU21D;73564;45.026;38.952;2023-12-20T06:33:43;11.12;74.76
83596;HTU21D;73564;45.026;38.952;2023-12-20T06:36:12;11.18;74.88
83596;HTU21D;73564;45.026;38.952;2023-12-20T06:38:39;11.22;74.62
83596;HTU21D;73564;45.026;38.952;2023-12-20T06:41:05;11.23;74.57
83596;HTU21D;73564;45.026;38.952;2023-12-20T06:43:31;11.28;74.51
83596;HTU21D;73564;45.026;38.952;2023-12-20T06:46:00;11.31;74.49
83596;HTU21D;73564;45.026;38.952;2023-12-20T06:48:26;11.36;74.45
83596;HTU21D;73564;45.026;38.952;2023-12-20T06:50:52;11.40;74.31
83596;HTU21D;73564;45.026;38.952;2023-12-20T06:53:18;11.43;74.33
83596;HTU21D;73564;45.026;38.952;2023-12-20T06:55:43;11.46;74.28
83596;HTU21D;73564;45.026;38.952;2023-12-20T06:58:09;11.51;74.17
83596;HTU21D;73564;45.026;38.952;2023-12-20T07:00:35;11.53;74.29
83596;HTU21D;73564;45.026;38.952;2023-12-20T07:03:01;11.58;74.22
83596;HTU21D;73564;45.026;38.952;2023-12-20T07:05:27;11.66;74.17
83596;HTU21D;73564;45.026;38.952;2023-12-20T07:07:53;11.70;74.09
83596;HTU21D;73564;45.026;38.952;2023-12-20T07:10:19;11.74;73.99
83596;HTU21D;73564;45.026;38.952;2023-12-20T07:12:45;11.75;73.99
83596;HTU21D;73564;45.026;38.952;2023-12-20T07:15:11;11.77;73.96
83596;HTU21D;73564;45.026;38.952;2023-12-20T07:17:37;11.81;73.89
83596;HTU21D;73564;45.026;38.952;2023-12-20T07:20:03;11.84;73.85
83596;HTU21D;73564;45.026;38.952;2023-12-20T07:22:30;11.84;73.84
83596;HTU21D;73564;45.026;38.952;2023-12-20T07:25:00;11.87;73.91
83596;HTU21D;73564;45.026;38.952;2023-12-20T07:27:26;11.89;73.87
83596;HTU21D;73564;45.026;38.952;2023-12-20T07:29:52;11.91;73.80
83596;HTU21D;73564;45.026;38.952;2023-12-20T07:32:18;11.92;73.71
83596;HTU21D;73564;45.026;38.952;2023-12-20T07:34:44;11.92;73.77
83596;HTU21D;73564;45.026;38.952;2023-12-20T07:37:10;11.93;73.65
83596;HTU21D;73564;45.026;38.952;2023-12-20T07:39:40;11.94;73.70
83596;HTU21D;73564;45.026;38.952;2023-12-20T07:42:07;11.93;73.80
83596;HTU21D;73564;45.026;38.952;2023-12-20T07:44:33;11.96;73.89
83596;HTU21D;73564;45.026;38.952;2023-12-20T07:46:59;12.00;73.78
83596;HTU21D;73564;45.026;38.952;2023-12-20T07:49:25;12.01;73.84
83596;HTU21D;73564;45.026;38.952;2023-12-20T07:51:50;12.04;73.89
83596;HTU21D;73564;45.026;38.952;2023-12-20T07:54:16;12.11;74.04
83596;HTU21D;73564;45.026;38.952;2023-12-20T07:56:42;12.19;73.85
83596;HTU21D;73564;45.026;38.952;2023-12-20T07:59:09;12.27;73.86
83596;HTU21D;73564;45.026;38.952;2023-12-20T08:01:35;12.37;73.64
83596;HTU21D;73564;45.026;38.952;2023-12-20T08:04:01;12.43;73.60
83596;HTU21D;73564;45.026;38.952;2023-12-20T08:06:27;12.47;73.63
83596;HTU21D;73564;45.026;38.952;2023-12-20T08:08:53;12.52;73.67
83596;HTU21D;73564;45.026;38.952;2023-12-20T08:11:19;12.57;73.56
83596;HTU21D;73564;45.026;38.952;2023-12-20T08:13:44;12.59;73.44
83596;HTU21D;73564;45.026;38.952;2023-12-20T08:16:10;12.59;73.32
83596;HTU21D;73564;45.026;38.952;2023-12-20T08:18:39;12.58;73.45
83596;HTU21D;73564;45.026;38.952;2023-12-20T08:21:06;12.64;73.47
83596;HTU21D;73564;45.026;38.952;2023-12-20T08:23:34;12.67;73.48
83596;HTU21D;73564;45.026;38.952;2023-12-20T08:26:06;12.73;73.26
83596;HTU21D;73564;45.026;38.952;2023-12-20T08:28:32;12.78;73.22
83596;HTU21D;73564;45.026;38.952;2023-12-20T08:30:59;12.80;73.35
83596;HTU21D;73564;45.026;38.952;2023-12-20T08:33:25;12.87;73.22
83596;HTU21D;73564;45.026;38.952;2023-12-20T08:35:50;12.91;73.09
83596;HTU21D;73564;45.026;38.952;2023-12-20T08:38:16;12.99;73.15
83596;HTU21D;73564;45.026;38.952;2023-12-20T08:40:43;13.06;72.87
83596;HTU21D;73564;45.026;38.952;2023-12-20T08:43:09;13.11;72.63
83596;HTU21D;73564;45.026;38.952;2023-12-20T08:45:35;13.16;72.61
83596;HTU21D;73564;45.026;38.952;2023-12-20T08:48:02;13.17;72.51
83596;HTU21D;73564;45.026;38.952;2023-12-20T08:50:29;13.18;72.11
83596;HTU21D;73564;45.026;38.952;2023-12-20T08:52:55;13.18;72.21
83596;HTU21D;73564;45.026;38.952;2023-12-20T08:55:20;13.16;71.80
83596;HTU21D;73564;45.026;38.952;2023-12-20T08:57:46;13.18;71.87
83596;HTU21D;73564;45.026;38.952;2023-12-20T09:00:13;13.19;71.98
83596;HTU21D;73564;45.026;38.952;2023-12-20T09:02:39;13.20;71.87
83596;HTU21D;73564;45.026;38.952;2023-12-20T09:05:05;13.21;71.86
83596;HTU21D;73564;45.026;38.952;2023-12-20T09:07:31;13.22;71.41
83596;HTU21D;73564;45.026;38.952;2023-12-20T09:09:58;13.20;71.48
83596;HTU21D;73564;45.026;38.952;2023-12-20T09:12:24;13.17;71.14
83596;HTU21D;73564;45.026;38.952;2023-12-20T09:14:51;13.14;71.18
83596;HTU21D;73564;45.026;38.952;2023-12-20T09:17:17;13.12;71.38
83596;HTU21D;73564;45.026;38.952;2023-12-20T09:19:44;13.12;71.15
83596;HTU21D;73564;45.026;38.952;2023-12-20T09:22:11;13.14;71.09
83596;HTU21D;73564;45.026;38.952;2023-12-20T09:24:37;13.11;71.05
83596;HTU21D;73564;45.026;38.952;2023-12-20T09:27:04;13.06;70.67
83596;HTU21D;73564;45.026;38.952;2023-12-20T09:29:31;13.08;0.00
83596;HTU21D;73564;45.026;38.952;2023-12-20T09:31:57;13.09;70.90
83596;HTU21D;73564;45.026;38.952;2023-12-20T09:34:23;13.14;70.81
83596;HTU21D;73564;45.026;38.952;2023-12-20T09:36:49;13.24;70.62
83596;HTU21D;73564;45.026;38.952;2023-12-20T09:39:19;13.33;70.36
83596;HTU21D;73564;45.026;38.952;2023-12-20T09:41:51;13.40;70.42
83596;HTU21D;73564;45.026;38.952;2023-12-20T09:44:23;13.47;70.18
83596;HTU21D;73564;45.026;38.952;2023-12-20T09:46:50;13.53;69.79
83596;HTU21D;73564;45.026;38.952;2023-12-20T09:49:19;13.55;70.02
83596;HTU21D;73564;45.026;38.952;2023-12-20T09:51:51;13.61;69.84
83596;HTU21D;73564;45.026;38.952;2023-12-20T09:54:17;13.65;69.57
83596;HTU21D;73564;45.026;38.952;2023-12-20T09:56:47;13.66;69.49
83596;HTU21D;73564;45.026;38.952;2023-12-20T09:59:13;13.67;69.35
83596;HTU21D;73564;45.026;38.952;2023-12-20T10:01:40;13.68;69.39
83596;HTU21D;73564;45.026;38.952;2023-12-20T10:04:08;13.73;69.24
83596;HTU21D;73564;45.026;38.952;2023-12-20T10:06:41;13.73;69.20
83596;HTU21D;73564;45.026;38.952;2023-12-20T10:09:08;13.74;69.13
83596;HTU21D;73564;45.026;38.952;2023-12-20T10:11:40;13.76;69.04
83596;HTU21D;73564;45.026;38.952;2023-12-20T10:14:06;13.78;69.09
83596;HTU21D;73564;45.026;38.952;2023-12-20T10:16:33;13.79;69.01
83596;HTU21D;73564;45.026;38.952;2023-12-20T10:19:00;13.83;68.90
83596;HTU21D;73564;45.026;38.952;2023-12-20T10:21:27;13.85;68.94
83596;HTU21D;73564;45.026;38.952;2023-12-20T10:23:58;13.91;68.91
83596;HTU21D;73564;45.026;38.952;2023-12-20T10:26:25;13.95;68.91
83596;HTU21D;73564;45.026;38.952;2023-12-20T10:28:54;13.96;68.99
83596;HTU21D;73564;45.026;38.952;2023-12-20T10:31:31;14.01;68.91
83596;HTU21D;73564;45.026;38.952;2023-12-20T10:33:58;14.03;68.74
83596;HTU21D;73564;45.026;38.952;2023-12-20T10:36:26;14.04;68.58
83596;HTU21D;73564;45.026;38.952;2023-12-20T10:38:53;14.04;68.64
83596;HTU21D;73564;45.026;38.952;2023-12-20T10:41:26;14.03;68.33
83596;HTU21D;73564;45.026;38.952;2023-12-20T10:44:01;14.01;68.33
83596;HTU21D;73564;45.026;38.952;2023-12-20T10:46:29;13.99;68.23
83596;HTU21D;73564;45.026;38.952;2023-12-20T10:48:56;13.98;68.45
83596;HTU21D;73564;45.026;38.952;2023-12-20T10:51:23;13.98;68.46
83596;HTU21D;73564;45.026;38.952;2023-12-20T10:53:50;13.98;68.30
83596;HTU21D;73564;45.026;38.952;2023-12-20T10:56:17;13.98;68.52
83596;HTU21D;73564;45.026;38.952;2023-12-20T10:58:45;14.00;68.66
83596;HTU21D;73564;45.026;38.952;2023-12-20T11:01:12;13.97;67.14
83596;HTU21D;73564;45.026;38.952;2023-12-20T11:03:38;14.00;68.59
83596;HTU21D;73564;45.026;38.952;2023-12-20T11:13:57;14.09;68.01
83596;HTU21D;73564;45.026;38.952;2023-12-20T11:16:25;14.10;68.04
83596;HTU21D;73564;45.026;38.952;2023-12-20T11:18:51;14.14;68.12
83596;HTU21D;73564;45.026;38.952;2023-12-20T11:21:18;14.19;67.92
83596;HTU21D;73564;45.026;38.952;2023-12-20T11:23:44;14.23;67.86
83596;HTU21D;73564;45.026;38.952;2023-12-20T11:26:09;14.25;67.98
83596;HTU21D;73564;45.026;38.952;2023-12-20T11:28:35;14.30;67.75
83596;HTU21D;73564;45.026;38.952;2023-12-20T11:31:02;14.35;67.34
83596;HTU21D;73564;45.026;38.952;2023-12-20T11:33:31;14.38;66.98
83596;HTU21D;73564;45.026;38.952;2023-12-20T11:35:59;14.35;66.56
83596;HTU21D;73564;45.026;38.952;2023-12-20T11:38:25;14.30;66.49
83596;HTU21D;73564;45.026;38.952;2023-12-20T11:40:54;14.29;66.70
83596;HTU21D;73564;45.026;38.952;2023-12-20T11:43:35;14.29;66.33
83596;HTU21D;73564;45.026;38.952;2023-12-20T11:46:05;14.28;66.25
83596;HTU21D;73564;45.026;38.952;2023-12-20T11:48:32;14.26;66.11
83596;HTU21D;73564;45.026;38.952;2023-12-20T11:50:58;14.25;66.07
83596;HTU21D;73564;45.026;38.952;2023-12-20T11:53:25;14.23;66.03
83596;HTU21D;73564;45.026;38.952;2023-12-20T11:55:50;14.23;65.77
83596;HTU21D;73564;45.026;38.952;2023-12-20T11:58:17;14.21;66.01
83596;HTU21D;73564;45.026;38.952;2023-12-20T12:00:43;14.23;66.24
83596;HTU21D;73564;45.026;38.952;2023-12-20T12:03:09;14.24;66.17
83596;HTU21D;73564;45.026;38.952;2023-12-20T12:05:35;14.27;66.17
83596;HTU21D;73564;45.026;38.952;2023-12-20T12:08:02;14.28;66.20
83596;HTU21D;73564;45.026;38.952;2023-12-20T12:10:31;14.29;65.96
83596;HTU21D;73564;45.026;38.952;2023-12-20T12:12:57;14.29;66.11
83596;HTU21D;73564;45.026;38.952;2023-12-20T12:15:23;14.29;66.10
83596;HTU21D;73564;45.026;38.952;2023-12-20T12:17:55;14.32;65.99
83596;HTU21D;73564;45.026;38.952;2023-12-20T12:20:22;14.33;66.04
83596;HTU21D;73564;45.026;38.952;2023-12-20T12:23:03;14.34;65.87
83596;HTU21D;73564;45.026;38.952;2023-12-20T12:25:31;14.34;66.18
83596;HTU21D;73564;45.026;38.952;2023-12-20T12:28:00;14.35;66.03
83596;HTU21D;73564;45.026;38.952;2023-12-20T12:30:26;14.36;65.87
83596;HTU21D;73564;45.026;38.952;2023-12-20T12:32:53;14.33;65.88
83596;HTU21D;73564;45.026;38.952;2023-12-20T12:35:20;14.33;65.96
83596;HTU21D;73564;45.026;38.952;2023-12-20T12:37:46;14.33;66.06
83596;HTU21D;73564;45.026;38.952;2023-12-20T12:40:13;14.34;65.95
83596;HTU21D;73564;45.026;38.952;2023-12-20T12:42:40;14.32;65.85
83596;HTU21D;73564;45.026;38.952;2023-12-20T12:45:06;14.25;64.87
83596;HTU21D;73564;45.026;38.952;2023-12-20T12:47:33;14.23;66.04
83596;HTU21D;73564;45.026;38.952;2023-12-20T12:49:59;14.22;66.23
83596;HTU21D;73564;45.026;38.952;2023-12-20T12:52:25;14.23;66.25
83596;HTU21D;73564;45.026;38.952;2023-12-20T12:54:53;14.25;66.24
83596;HTU21D;73564;45.026;38.952;2023-12-20T12:57:19;14.27;66.37
83596;HTU21D;73564;45.026;38.952;2023-12-20T12:59:45;14.28;66.42
83596;HTU21D;73564;45.026;38.952;2023-12-20T13:02:13;14.32;66.48
83596;HTU21D;73564;45.026;38.952;2023-12-20T13:04:42;14.34;66.41
83596;HTU21D;73564;45.026;38.952;2023-12-20T13:07:09;14.33;66.65
83596;HTU21D;73564;45.026;38.952;2023-12-20T13:09:38;14.35;66.90
83596;HTU21D;73564;45.026;38.952;2023-12-20T13:12:05;14.35;66.93
83596;HTU21D;73564;45.026;38.952;2023-12-20T13:14:33;14.36;66.93
83596;HTU21D;73564;45.026;38.952;2023-12-20T13:17:00;14.36;67.10
83596;HTU21D;73564;45.026;38.952;2023-12-20T13:19:26;14.35;67.18
83596;HTU21D;73564;45.026;38.952;2023-12-20T13:21:53;14.34;67.39
83596;HTU21D;73564;45.026;38.952;2023-12-20T13:24:19;14.34;67.41
83596;HTU21D;73564;45.026;38.952;2023-12-20T13:26:44;14.30;67.55
83596;HTU21D;73564;45.026;38.952;2023-12-20T13:29:10;14.28;67.95
83596;HTU21D;73564;45.026;38.952;2023-12-20T13:31:37;14.27;68.08
83596;HTU21D;73564;45.026;38.952;2023-12-20T13:34:04;14.24;68.31
83596;HTU21D;73564;45.026;38.952;2023-12-20T13:36:29;14.23;68.42
83596;HTU21D;73564;45.026;38.952;2023-12-20T13:38:55;14.20;68.62
83596;HTU21D;73564;45.026;38.952;2023-12-20T13:41:22;14.15;68.75
83596;HTU21D;73564;45.026;38.952;2023-12-20T13:43:47;14.13;68.75
83596;HTU21D;73564;45.026;38.952;2023-12-20T13:46:13;14.10;68.76
83596;HTU21D;73564;45.026;38.952;2023-12-20T13:48:39;14.08;68.87
83596;HTU21D;73564;45.026;38.952;2023-12-20T13:51:05;14.08;69.02
83596;HTU21D;73564;45.026;38.952;2023-12-20T13:53:32;14.07;68.96
83596;HTU21D;73564;45.026;38.952;2023-12-20T13:55:59;14.06;68.90
83596;HTU21D;73564;45.026;38.952;2023-12-20T13:58:26;14.03;68.81
83596;HTU21D;73564;45.026;38.952;2023-12-20T14:00:51;13.97;68.86
83596;HTU21D;73564;45.026;38.952;2023-12-20T14:03:17;13.93;68.87
83596;HTU21D;73564;45.026;38.952;2023-12-20T14:05:45;13.83;67.73
83596;HTU21D;73564;45.026;38.952;2023-12-20T14:08:11;13.66;67.73
83596;HTU21D;73564;45.026;38.952;2023-12-20T14:10:37;13.49;67.70
83596;HTU21D;73564;45.026;38.952;2023-12-20T14:13:04;13.33;67.55
83596;HTU21D;73564;45.026;38.952;2023-12-20T14:15:31;13.19;67.41
83596;HTU21D;73564;45.026;38.952;2023-12-20T14:18:04;13.10;68.44
83596;HTU21D;73564;45.026;38.952;2023-12-20T14:20:31;13.08;68.85
83596;HTU21D;73564;45.026;38.952;2023-12-20T14:23:04;13.12;69.19
83596;HTU21D;73564;45.026;38.952;2023-12-20T14:25:30;13.19;69.65
83596;HTU21D;73564;45.026;38.952;2023-12-20T14:27:57;13.26;69.43
83596;HTU21D;73564;45.026;38.952;2023-12-20T14:30:23;13.31;69.36
83596;HTU21D;73564;45.026;38.952;2023-12-20T14:32:49;13.32;69.40
83596;HTU21D;73564;45.026;38.952;2023-12-20T14:35:15;13.33;69.61
83596;HTU21D;73564;45.026;38.952;2023-12-20T14:37:41;13.34;69.75
83596;HTU21D;73564;45.026;38.952;2023-12-20T14:40:07;13.33;69.96
83596;HTU21D;73564;45.026;38.952;2023-12-20T14:42:36;13.32;70.20
83596;HTU21D;73564;45.026;38.952;2023-12-20T14:45:03;13.33;70.27
83596;HTU21D;73564;45.026;38.952;2023-12-20T14:47:29;13.31;70.26
83596;HTU21D;73564;45.026;38.952;2023-12-20T14:49:55;13.29;70.19
83596;HTU21D;73564;45.026;38.952;2023-12-20T14:52:20;13.27;70.28
83596;HTU21D;73564;45.026;38.952;2023-12-20T14:54:46;13.27;70.30
83596;HTU21D;73564;45.026;38.952;2023-12-20T14:57:12;13.27;70.21
83596;HTU21D;73564;45.026;38.952;2023-12-20T14:59:38;13.25;70.27
83596;HTU21D;73564;45.026;38.952;2023-12-20T15:02:04;13.23;70.36
83596;HTU21D;73564;45.026;38.952;2023-12-20T15:04:31;13.21;70.39
83596;HTU21D;73564;45.026;38.952;2023-12-20T15:06:57;13.19;70.38